createdAt,value
2022-11-12T00:04:01.207Z,68.20
2022-11-12T00:14:23.592Z,59.50
2022-11-12T00:24:46.076Z,59.40
2022-11-12T00:35:13.461Z,67.70
2022-11-12T00:45:36.828Z,68.60
2022-11-12T00:56:06.966Z,57.20
2022-11-12T01:06:29.561Z,64.00
2022-11-12T01:16:52.588Z,55.40
2022-11-12T01:27:15.583Z,53.30
2022-11-12T01:37:38.183Z,54.10
2022-11-12T01:48:02.825Z,55.40
2022-11-12T01:58:30.132Z,57.70
2022-11-12T02:08:52.530Z,64.40
2022-11-12T02:19:17.269Z,47.10
2022-11-12T02:29:46.765Z,41.40
2022-11-12T02:40:10.235Z,38.50
2022-11-12T02:50:33.042Z,35.80
2022-11-12T03:00:56.704Z,31.70
2022-11-12T03:11:18.857Z,34.70
2022-11-12T03:21:41.443Z,34.90
2022-11-12T03:32:04.046Z,29.60
2022-11-12T03:42:26.423Z,29.60
2022-11-12T03:52:52.027Z,32.70
2022-11-12T04:03:15.005Z,29.10
2022-11-12T04:13:38.836Z,27.40
2022-11-12T04:24:01.219Z,30.20
2022-11-12T04:34:29.676Z,28.30
2022-11-12T04:44:58.493Z,29.70
2022-11-12T04:55:20.784Z,41.70
2022-11-12T05:05:43.474Z,36.50
2022-11-12T05:16:07.361Z,75.60
2022-11-12T05:26:30.786Z,67.00
2022-11-12T05:36:53.317Z,43.80
2022-11-12T05:47:17.013Z,32.80
2022-11-12T05:57:39.838Z,33.60
2022-11-12T06:08:06.018Z,32.70
2022-11-12T06:18:29.170Z,37.90
2022-11-12T06:28:53.025Z,35.50
2022-11-12T06:39:15.747Z,44.10
2022-11-12T06:49:38.562Z,38.20
2022-11-12T07:00:01.260Z,47.40
2022-11-12T07:10:23.588Z,41.00
2022-11-12T07:20:46.334Z,41.00
2022-11-12T07:31:12.490Z,39.20
2022-11-12T07:41:35.213Z,37.20
2022-11-12T07:51:58.735Z,39.00
2022-11-12T08:02:21.321Z,17.40
2022-11-12T08:12:44.261Z,13.00
2022-11-12T08:23:07.141Z,12.80
2022-11-12T08:33:30.882Z,14.80
2022-11-12T08:43:53.930Z,11.70
2022-11-12T08:54:16.154Z,7.30
2022-11-12T09:04:39.067Z,8.70
2022-11-12T09:15:30.842Z,9.00
2022-11-12T09:25:45.228Z,10.00
2022-11-12T09:36:09.005Z,7.70
2022-11-12T09:46:41.798Z,7.40
2022-11-12T09:57:06.637Z,7.50
2022-11-12T10:07:37.420Z,8.10
2022-11-12T10:18:19.326Z,4.10
2022-11-12T10:29:00.987Z,3.70
2022-11-12T10:39:46.501Z,6.20
2022-11-12T10:50:08.796Z,4.70
2022-11-12T11:00:31.842Z,6.80
2022-11-12T11:11:21.689Z,3.60
2022-11-12T11:21:58.838Z,4.80
2022-11-12T11:32:37.018Z,5.60
2022-11-12T11:43:22.211Z,4.40
2022-11-12T11:54:14.189Z,5.20
2022-11-12T12:04:50.590Z,6.80
2022-11-12T12:15:38.016Z,6.10
2022-11-12T12:26:03.502Z,3.40
2022-11-12T12:36:35.015Z,5.10
2022-11-12T12:47:01.668Z,4.70
2022-11-12T12:57:41.391Z,4.40
2022-11-12T13:08:12.416Z,3.30
2022-11-12T13:18:41.144Z,3.90
2022-11-12T13:29:25.199Z,8.70
2022-11-12T13:39:48.049Z,4.40
2022-11-12T13:50:17.068Z,6.10
2022-11-12T14:00:40.677Z,7.00
2022-11-12T14:11:08.991Z,5.80
2022-11-12T14:21:31.995Z,6.90
2022-11-12T14:32:04.163Z,10.30
2022-11-12T14:42:27.054Z,10.50
2022-11-12T14:52:56.584Z,13.90
2022-11-12T15:03:25.248Z,17.90
2022-11-12T15:13:49.624Z,27.90
2022-11-12T15:24:11.833Z,35.70
2022-11-12T15:34:39.861Z,17.10
2022-11-12T15:55:27.308Z,28.90
2022-11-12T16:05:50.307Z,27.90
2022-11-12T16:16:12.950Z,44.40
2022-11-12T16:26:36.354Z,41.70
2022-11-12T16:36:59.836Z,39.00
2022-11-12T16:47:22.732Z,51.10
2022-11-12T16:57:45.944Z,42.80
2022-11-12T17:08:10.519Z,69.50
2022-11-12T17:18:35.238Z,44.70
2022-11-12T17:29:06.584Z,57.50
2022-11-12T17:39:31.380Z,105.80
2022-11-12T17:49:54.628Z,73.10
2022-11-12T18:00:17.800Z,67.40
2022-11-12T18:10:43.821Z,80.00
2022-11-12T18:21:07.108Z,93.50
2022-11-12T18:31:30.313Z,78.70
2022-11-12T18:41:55.850Z,82.80
2022-11-12T18:52:19.489Z,82.00
2022-11-12T19:02:44.424Z,80.80
2022-11-12T19:13:08.000Z,86.60
2022-11-12T19:23:32.479Z,78.40
2022-11-12T19:33:56.368Z,75.00
2022-11-12T19:44:19.348Z,84.60
2022-11-12T19:54:42.721Z,76.90
2022-11-12T20:05:09.380Z,96.80
2022-11-12T20:15:33.661Z,89.60
2022-11-12T20:26:04.211Z,82.80
2022-11-12T20:36:28.511Z,90.90
2022-11-12T20:46:52.105Z,70.30
2022-11-12T20:57:15.719Z,78.90
2022-11-12T21:07:39.139Z,61.90
2022-11-12T21:18:01.939Z,69.70
2022-11-12T21:28:25.500Z,68.00
2022-11-12T21:38:49.488Z,69.60
2022-11-12T21:49:12.377Z,73.40
2022-11-12T21:59:34.880Z,68.90
2022-11-12T22:09:57.469Z,90.00
2022-11-12T22:20:20.467Z,90.30
2022-11-12T22:30:43.173Z,81.00
2022-11-12T22:41:10.882Z,73.80
2022-11-12T22:51:35.549Z,69.20
2022-11-12T23:01:58.137Z,57.40
2022-11-12T23:12:26.703Z,69.70
2022-11-12T23:22:50.552Z,72.20
2022-11-12T23:33:13.137Z,61.10
2022-11-12T23:43:35.419Z,55.50
2022-11-12T23:53:57.764Z,58.70
